createdAt,value
2023-07-12T00:00:31.421Z,100.00
2023-07-12T00:02:59.200Z,100.00
2023-07-12T00:05:29.872Z,100.00
2023-07-12T00:07:57.683Z,100.00
2023-07-12T00:10:26.403Z,100.00
2023-07-12T00:12:54.723Z,100.00
2023-07-12T00:15:23.054Z,100.00
2023-07-12T00:17:53.015Z,100.00
2023-07-12T00:20:27.101Z,100.00
2023-07-12T00:22:54.990Z,100.00
2023-07-12T00:25:23.270Z,100.00
2023-07-12T00:27:50.789Z,100.00
2023-07-12T00:30:20.810Z,100.00
2023-07-12T00:32:53.438Z,100.00
2023-07-12T00:35:22.887Z,100.00
2023-07-12T00:37:50.859Z,100.00
2023-07-12T00:40:33.911Z,100.00
2023-07-12T00:43:10.605Z,100.00
2023-07-12T00:45:37.711Z,100.00
2023-07-12T00:48:11.949Z,100.00
2023-07-12T00:50:39.535Z,100.00
2023-07-12T00:53:10.198Z,100.00
2023-07-12T00:55:58.553Z,100.00
2023-07-12T00:58:27.568Z,100.00
2023-07-12T01:00:58.158Z,100.00
2023-07-12T01:03:30.223Z,100.00
2023-07-12T01:05:57.380Z,100.00
2023-07-12T01:08:24.660Z,100.00
2023-07-12T01:10:52.264Z,100.00
2023-07-12T01:13:22.827Z,100.00
2023-07-12T01:15:50.041Z,100.00
2023-07-12T01:18:17.014Z,100.00
2023-07-12T01:20:46.903Z,100.00
2023-07-12T01:23:15.557Z,100.00
2023-07-12T01:25:44.398Z,100.00
2023-07-12T01:28:11.449Z,100.00
2023-07-12T01:30:39.379Z,100.00
2023-07-12T01:33:06.727Z,100.00
2023-07-12T01:35:33.870Z,100.00
2023-07-12T01:38:00.731Z,100.00
2023-07-12T01:40:28.973Z,100.00
2023-07-12T01:42:55.858Z,100.00
2023-07-12T01:45:22.842Z,100.00
2023-07-12T01:47:49.751Z,100.00
2023-07-12T01:50:16.784Z,100.00
2023-07-12T01:52:43.597Z,100.00
2023-07-12T01:55:10.468Z,100.00
2023-07-12T01:57:39.263Z,100.00
2023-07-12T02:00:07.540Z,100.00
2023-07-12T02:02:34.430Z,100.00
2023-07-12T02:05:01.435Z,100.00
2023-07-12T02:07:28.236Z,100.00
2023-07-12T02:10:10.401Z,100.00
2023-07-12T02:12:38.631Z,100.00
2023-07-12T02:15:06.551Z,100.00
2023-07-12T02:17:33.657Z,100.00
2023-07-12T02:20:00.742Z,100.00
2023-07-12T02:22:30.650Z,100.00
2023-07-12T02:24:57.684Z,100.00
2023-07-12T02:27:25.069Z,100.00
2023-07-12T02:29:53.616Z,100.00
2023-07-12T02:32:24.385Z,100.00
2023-07-12T02:34:51.304Z,100.00
2023-07-12T02:37:18.190Z,100.00
2023-07-12T02:39:45.203Z,100.00
2023-07-12T02:42:12.462Z,100.00
2023-07-12T02:44:40.663Z,100.00
2023-07-12T02:47:10.936Z,100.00
2023-07-12T02:49:38.254Z,100.00
2023-07-12T02:52:05.989Z,100.00
2023-07-12T02:54:33.519Z,100.00
2023-07-12T02:57:01.222Z,100.00
2023-07-12T02:59:28.157Z,100.00
2023-07-12T03:01:55.503Z,100.00
2023-07-12T03:04:23.902Z,100.00
2023-07-12T03:06:50.924Z,100.00
2023-07-12T03:09:18.119Z,100.00
2023-07-12T03:11:47.107Z,100.00
2023-07-12T03:14:15.781Z,100.00
2023-07-12T03:16:42.846Z,100.00
2023-07-12T03:19:09.718Z,100.00
2023-07-12T03:21:38.187Z,100.00
2023-07-12T03:24:06.169Z,100.00
2023-07-12T03:26:33.299Z,100.00
2023-07-12T03:29:00.204Z,100.00
2023-07-12T03:31:28.849Z,100.00
2023-07-12T03:33:56.576Z,100.00
2023-07-12T03:36:27.327Z,100.00
2023-07-12T03:38:56.410Z,100.00
2023-07-12T03:41:23.809Z,100.00
2023-07-12T03:43:50.680Z,100.00
2023-07-12T03:46:18.177Z,100.00
2023-07-12T03:48:45.457Z,100.00
2023-07-12T03:51:13.620Z,100.00
2023-07-12T03:53:40.985Z,100.00
2023-07-12T03:56:10.316Z,100.00
2023-07-12T03:58:39.434Z,100.00
2023-07-12T04:01:08.235Z,100.00
2023-07-12T04:03:35.772Z,100.00
2023-07-12T04:06:04.497Z,100.00
2023-07-12T04:08:32.163Z,100.00
2023-07-12T04:10:59.331Z,100.00
2023-07-12T04:13:28.402Z,100.00
2023-07-12T04:15:56.819Z,100.00
2023-07-12T04:18:24.366Z,100.00
2023-07-12T04:20:51.400Z,100.00
2023-07-12T04:23:18.499Z,100.00
2023-07-12T04:25:45.340Z,100.00
2023-07-12T04:28:12.761Z,100.00
2023-07-12T04:30:41.003Z,100.00
2023-07-12T04:33:07.940Z,100.00
2023-07-12T04:35:38.842Z,100.00
2023-07-12T04:38:06.045Z,100.00
2023-07-12T04:40:32.861Z,100.00
2023-07-12T04:42:59.901Z,100.00
2023-07-12T04:45:26.889Z,100.00
2023-07-12T04:47:55.209Z,100.00
2023-07-12T04:50:22.168Z,100.00
2023-07-12T04:52:49.170Z,100.00
2023-07-12T04:55:27.413Z,100.00
2023-07-12T04:57:55.544Z,100.00
2023-07-12T05:00:24.854Z,100.00
2023-07-12T05:02:52.283Z,100.00
2023-07-12T05:05:21.317Z,100.00
2023-07-12T05:07:49.691Z,100.00
2023-07-12T05:10:17.635Z,100.00
2023-07-12T05:12:45.182Z,100.00
2023-07-12T05:15:12.922Z,100.00
2023-07-12T05:17:40.673Z,100.00
2023-07-12T05:20:12.038Z,100.00
2023-07-12T05:22:40.505Z,100.00
2023-07-12T05:25:08.374Z,100.00
2023-07-12T05:27:35.253Z,100.00
2023-07-12T05:30:02.267Z,100.00
2023-07-12T05:32:29.283Z,100.00
2023-07-12T05:34:56.148Z,100.00
2023-07-12T05:37:25.811Z,100.00
2023-07-12T05:39:56.304Z,100.00
2023-07-12T05:42:23.203Z,100.00
2023-07-12T05:44:50.074Z,100.00
2023-07-12T05:47:17.436Z,100.00
2023-07-12T05:49:44.280Z,100.00
2023-07-12T05:52:11.119Z,100.00
2023-07-12T05:54:38.137Z,100.00
2023-07-12T05:57:07.041Z,100.00
2023-07-12T05:59:34.014Z,100.00
2023-07-12T06:02:00.896Z,100.00
2023-07-12T06:04:27.773Z,100.00
2023-07-12T06:06:54.662Z,100.00
2023-07-12T06:09:21.487Z,100.00
2023-07-12T06:11:48.477Z,100.00
2023-07-12T06:14:16.697Z,100.00
2023-07-12T06:16:45.762Z,100.00
2023-07-12T06:19:12.712Z,100.00
2023-07-12T06:21:39.748Z,100.00
2023-07-12T06:24:06.949Z,100.00
2023-07-12T06:26:34.009Z,100.00
2023-07-12T06:29:01.226Z,100.00
2023-07-12T06:31:29.970Z,100.00
2023-07-12T06:34:00.704Z,100.00
2023-07-12T06:36:27.784Z,100.00
2023-07-12T06:38:54.915Z,100.00
2023-07-12T06:41:21.848Z,100.00
2023-07-12T06:43:48.849Z,100.00
2023-07-12T06:46:16.257Z,100.00
2023-07-12T06:48:44.528Z,100.00
2023-07-12T06:51:11.510Z,100.00
2023-07-12T06:53:38.605Z,100.00
2023-07-12T06:56:05.795Z,100.00
2023-07-12T06:58:32.713Z,100.00
2023-07-12T07:00:59.631Z,100.00
2023-07-12T07:03:27.257Z,100.00
2023-07-12T07:05:57.961Z,100.00
2023-07-12T07:08:26.443Z,100.00
2023-07-12T07:10:54.148Z,100.00
2023-07-12T07:13:23.415Z,100.00
2023-07-12T07:15:50.770Z,100.00
2023-07-12T07:18:18.147Z,100.00
2023-07-12T07:20:46.290Z,100.00
2023-07-12T07:23:15.293Z,100.00
2023-07-12T07:25:43.929Z,100.00
2023-07-12T07:28:11.009Z,99.05
2023-07-12T07:30:38.592Z,88.72
2023-07-12T07:33:05.836Z,89.64
2023-07-12T07:35:32.829Z,90.17
2023-07-12T07:37:59.769Z,87.80
2023-07-12T07:40:28.041Z,80.44
2023-07-12T07:42:55.698Z,80.60
2023-07-12T07:45:23.110Z,85.02
2023-07-12T07:47:50.245Z,90.36
2023-07-12T07:50:17.296Z,85.19
2023-07-12T07:52:44.317Z,78.01
2023-07-12T07:55:11.233Z,81.49
2023-07-12T07:57:39.429Z,78.03
2023-07-12T08:00:11.593Z,73.71
2023-07-12T08:02:39.287Z,71.57
2023-07-12T08:05:07.125Z,67.06
2023-07-12T08:07:38.981Z,68.73
2023-07-12T08:10:07.386Z,75.79
2023-07-12T08:12:34.475Z,80.10
2023-07-12T08:15:03.016Z,83.58
2023-07-12T08:17:31.316Z,78.65
2023-07-12T08:19:58.331Z,76.59
2023-07-12T08:22:26.377Z,77.92
2023-07-12T08:24:53.356Z,80.16
2023-07-12T08:27:20.224Z,85.09
2023-07-12T08:29:47.025Z,83.47
2023-07-12T08:32:15.519Z,77.84
2023-07-12T08:34:42.315Z,74.20
2023-07-12T08:37:09.094Z,71.56
2023-07-12T08:39:35.943Z,74.71
2023-07-12T08:42:11.113Z,76.97
2023-07-12T08:44:38.367Z,71.07
2023-07-12T08:47:06.297Z,67.50
2023-07-12T08:49:34.499Z,66.26
2023-07-12T08:52:06.736Z,64.45
2023-07-12T08:54:36.980Z,64.56
2023-07-12T08:57:19.647Z,66.97
2023-07-12T08:59:54.551Z,64.77
2023-07-12T09:02:23.955Z,63.90
2023-07-12T09:04:57.474Z,65.76
2023-07-12T09:07:28.676Z,65.00
2023-07-12T09:09:56.895Z,67.10
2023-07-12T09:12:26.201Z,65.43
2023-07-12T09:14:54.427Z,64.52
2023-07-12T09:17:24.528Z,61.67
2023-07-12T09:19:52.801Z,61.21
2023-07-12T09:22:20.087Z,65.70
2023-07-12T09:24:52.486Z,70.49
2023-07-12T09:27:22.113Z,71.61
2023-07-12T09:29:49.710Z,75.86
2023-07-12T09:32:19.921Z,69.98
2023-07-12T09:34:48.912Z,70.23
2023-07-12T09:37:19.538Z,66.98
2023-07-12T09:39:54.628Z,65.52
2023-07-12T09:42:21.555Z,70.62
2023-07-12T09:44:49.518Z,70.07
2023-07-12T09:47:35.322Z,65.82
2023-07-12T09:50:13.074Z,64.96
2023-07-12T09:52:52.541Z,70.15
2023-07-12T09:55:24.908Z,71.86
2023-07-12T09:58:03.757Z,71.81
2023-07-12T10:00:34.888Z,65.10
2023-07-12T10:03:14.802Z,65.23
2023-07-12T10:05:45.296Z,62.32
2023-07-12T10:08:16.136Z,60.48
2023-07-12T10:10:50.155Z,62.32
2023-07-12T10:13:30.766Z,62.49
2023-07-12T10:15:59.526Z,59.93
2023-07-12T10:18:29.830Z,61.95
2023-07-12T10:20:58.130Z,61.34
2023-07-12T10:23:31.510Z,59.98
2023-07-12T10:26:00.676Z,57.29
2023-07-12T10:28:41.828Z,53.46
2023-07-12T10:31:18.547Z,53.75
2023-07-12T10:33:48.680Z,54.13
2023-07-12T10:36:20.446Z,57.32
2023-07-12T10:38:49.840Z,60.40
2023-07-12T10:41:24.296Z,64.23
2023-07-12T10:43:57.979Z,63.35
2023-07-12T10:46:34.556Z,57.93
2023-07-12T10:49:05.059Z,59.69
2023-07-12T10:51:36.825Z,58.44
2023-07-12T10:54:06.620Z,59.94
2023-07-12T10:56:39.149Z,59.42
2023-07-12T10:59:40.870Z,61.12
2023-07-12T11:02:21.569Z,63.96
2023-07-12T11:04:49.922Z,58.08
2023-07-12T11:07:34.947Z,55.27
2023-07-12T11:10:17.432Z,56.28
2023-07-12T11:12:51.138Z,57.00
2023-07-12T11:15:23.108Z,54.78
2023-07-12T11:17:59.202Z,56.12
2023-07-12T11:20:27.970Z,57.77
2023-07-12T11:23:24.340Z,60.71
2023-07-12T11:25:59.536Z,56.57
2023-07-12T11:28:40.107Z,57.20
2023-07-12T11:31:17.760Z,55.50
2023-07-12T11:33:50.072Z,55.76
2023-07-12T11:36:21.582Z,56.44
2023-07-12T11:38:50.385Z,59.40
2023-07-12T11:41:22.813Z,59.79
2023-07-12T11:43:59.200Z,56.71
2023-07-12T11:46:30.062Z,55.58
2023-07-12T11:49:05.500Z,55.20
2023-07-12T11:51:37.738Z,57.13
2023-07-12T11:54:18.404Z,57.37
2023-07-12T11:56:48.595Z,56.07
2023-07-12T11:59:16.703Z,50.68
2023-07-12T12:01:44.275Z,52.11
2023-07-12T12:04:19.549Z,52.18
2023-07-12T12:06:46.618Z,55.04
2023-07-12T12:09:13.490Z,54.73
2023-07-12T12:11:40.918Z,54.22
2023-07-12T12:14:19.826Z,56.79
2023-07-12T12:16:52.367Z,56.34
2023-07-12T12:19:19.874Z,53.43
2023-07-12T12:21:48.597Z,52.14
2023-07-12T12:24:18.460Z,50.39
2023-07-12T12:26:46.960Z,50.91
2023-07-12T12:29:18.402Z,50.97
2023-07-12T12:31:53.221Z,49.11
2023-07-12T12:34:20.238Z,50.57
2023-07-12T12:36:57.964Z,52.05
2023-07-12T12:39:25.059Z,51.61
2023-07-12T12:41:54.229Z,53.92
2023-07-12T12:44:23.383Z,54.90
2023-07-12T12:54:27.212Z,55.52
2023-07-12T13:17:53.600Z,50.53
2023-07-12T13:19:50.780Z,53.13
2023-07-12T13:22:20.124Z,45.85
2023-07-12T13:24:47.219Z,47.90
2023-07-12T13:27:28.458Z,48.96
2023-07-12T13:29:57.038Z,50.27
2023-07-12T13:32:24.390Z,52.07
2023-07-12T13:37:29.485Z,52.24
2023-07-12T13:39:58.141Z,50.93
2023-07-12T13:47:30.332Z,46.83
2023-07-12T13:49:57.525Z,46.26
2023-07-12T13:52:25.973Z,44.71
2023-07-12T13:54:53.036Z,44.27
2023-07-12T13:57:25.198Z,41.99
2023-07-12T13:59:52.388Z,42.18
2023-07-12T14:05:43.211Z,42.31
2023-07-12T14:08:22.759Z,42.55
2023-07-12T14:10:30.567Z,41.03
2023-07-12T14:12:57.512Z,43.23
2023-07-12T14:15:26.249Z,40.92
2023-07-12T14:17:55.806Z,41.24
2023-07-12T14:20:24.876Z,42.03
2023-07-12T14:22:51.909Z,41.87
2023-07-12T14:25:20.570Z,42.67
2023-07-12T14:27:48.028Z,43.04
2023-07-12T14:32:47.182Z,46.95
2023-07-12T14:35:18.210Z,48.52
2023-07-12T14:37:45.887Z,47.08
2023-07-12T14:40:14.069Z,47.67
2023-07-12T14:42:40.929Z,47.30
2023-07-12T14:45:14.750Z,45.94
2023-07-12T14:47:41.971Z,45.06
2023-07-12T14:50:11.274Z,42.21
2023-07-12T14:52:40.513Z,41.07
2023-07-12T14:55:16.382Z,38.57
2023-07-12T15:00:16.911Z,43.17
2023-07-12T15:02:48.643Z,45.79
2023-07-12T15:05:15.567Z,45.58
2023-07-12T15:07:45.146Z,45.64
2023-07-12T15:10:17.470Z,43.50
2023-07-12T15:12:47.117Z,44.71
2023-07-12T15:15:18.734Z,45.79
2023-07-12T15:17:49.392Z,46.45
2023-07-12T15:20:19.561Z,45.97
2023-07-12T15:22:48.126Z,46.58
2023-07-12T15:25:16.965Z,47.42
2023-07-12T15:27:43.814Z,45.92
2023-07-12T15:30:14.035Z,46.09
2023-07-12T15:32:41.193Z,47.43
2023-07-12T15:35:23.735Z,47.77
2023-07-12T15:37:53.613Z,46.83
2023-07-12T15:40:20.999Z,49.06
2023-07-12T15:42:48.012Z,50.37
2023-07-12T15:45:16.125Z,50.22
2023-07-12T15:47:43.676Z,49.02
2023-07-12T15:50:15.757Z,48.00
2023-07-12T15:52:44.595Z,50.11
2023-07-12T15:55:17.769Z,50.29
2023-07-12T15:57:44.828Z,50.97
2023-07-12T16:00:19.438Z,51.23
2023-07-12T16:02:47.071Z,52.54
2023-07-12T16:05:15.809Z,52.53
2023-07-12T16:07:44.081Z,50.72
2023-07-12T16:10:13.656Z,51.46
2023-07-12T16:12:42.864Z,52.15
2023-07-12T16:15:19.717Z,51.15
2023-07-12T16:17:46.740Z,52.39
2023-07-12T16:20:13.934Z,52.36
2023-07-12T16:22:42.326Z,52.62
2023-07-12T16:25:15.546Z,53.87
2023-07-12T16:27:45.669Z,54.94
2023-07-12T16:30:16.310Z,52.54
2023-07-12T16:32:43.729Z,53.65
2023-07-12T16:35:16.094Z,54.78
2023-07-12T16:37:43.574Z,53.65
2023-07-12T16:40:14.625Z,54.98
2023-07-12T16:42:44.699Z,54.92
2023-07-12T16:45:26.246Z,57.73
2023-07-12T16:47:54.912Z,59.35
2023-07-12T16:50:22.029Z,58.45
2023-07-12T16:52:48.859Z,58.72
2023-07-12T16:55:20.193Z,57.59
2023-07-12T16:57:47.567Z,58.37
2023-07-12T17:00:15.288Z,59.31
2023-07-12T17:02:43.703Z,61.36
2023-07-12T17:05:15.882Z,60.72
2023-07-12T17:07:42.819Z,61.09
2023-07-12T17:10:10.060Z,60.86
2023-07-12T17:12:37.225Z,61.62
2023-07-12T17:15:04.457Z,61.12
2023-07-12T17:17:31.390Z,60.72
2023-07-12T17:19:59.735Z,62.23
2023-07-12T17:22:26.942Z,63.93
2023-07-12T17:24:53.765Z,64.47
2023-07-12T17:27:23.649Z,64.06
2023-07-12T17:29:51.991Z,63.54
2023-07-12T17:32:26.392Z,63.75
2023-07-12T17:34:53.213Z,64.41
2023-07-12T17:37:21.561Z,65.17
2023-07-12T17:39:58.781Z,65.92
2023-07-12T17:42:30.011Z,67.00
2023-07-12T17:44:57.738Z,66.57
2023-07-12T17:47:25.407Z,65.87
2023-07-12T17:49:52.573Z,65.84
2023-07-12T17:52:22.487Z,65.84
2023-07-12T17:54:49.772Z,66.52
2023-07-12T17:57:16.588Z,66.91
2023-07-12T17:59:45.167Z,67.07
2023-07-12T18:02:17.533Z,67.34
2023-07-12T18:04:45.504Z,67.71
2023-07-12T18:07:24.620Z,67.68
2023-07-12T18:09:53.085Z,68.03
2023-07-12T18:12:22.676Z,68.68
2023-07-12T18:14:51.299Z,68.67
2023-07-12T18:17:20.077Z,68.08
2023-07-12T18:19:47.681Z,68.57
2023-07-12T18:22:17.540Z,69.27
2023-07-12T18:24:48.274Z,70.02
2023-07-12T18:27:17.287Z,70.32
2023-07-12T18:29:45.199Z,71.13
2023-07-12T18:32:17.648Z,71.70
2023-07-12T18:34:45.504Z,72.59
2023-07-12T18:37:14.266Z,73.98
2023-07-12T18:39:43.113Z,74.08
2023-07-12T18:42:17.818Z,74.51
2023-07-12T18:44:44.995Z,75.39
2023-07-12T18:47:11.940Z,75.80
2023-07-12T18:49:38.821Z,75.56
2023-07-12T18:52:12.297Z,76.86
2023-07-12T18:54:39.170Z,78.69
2023-07-12T18:57:09.976Z,78.19
2023-07-12T18:59:38.755Z,79.42
2023-07-12T19:02:13.148Z,79.80
2023-07-12T19:04:41.544Z,80.86
2023-07-12T19:07:15.759Z,80.20
2023-07-12T19:09:42.730Z,80.57
2023-07-12T19:12:11.866Z,81.42
2023-07-12T19:14:40.463Z,81.23
2023-07-12T19:17:12.088Z,81.96
2023-07-12T19:19:39.736Z,81.65
2023-07-12T19:22:09.488Z,82.75
2023-07-12T19:24:36.285Z,82.63
2023-07-12T19:27:13.513Z,83.22
2023-07-12T19:29:45.212Z,83.93
2023-07-12T19:32:14.264Z,84.84
2023-07-12T19:34:43.148Z,86.04
2023-07-12T19:37:11.639Z,86.48
2023-07-12T19:39:38.777Z,86.77
2023-07-12T19:42:07.615Z,86.11
2023-07-12T19:44:35.132Z,85.87
2023-07-12T19:47:03.924Z,85.62
2023-07-12T19:49:31.317Z,86.12
2023-07-12T19:51:58.372Z,86.86
2023-07-12T19:54:25.377Z,86.47
2023-07-12T19:56:53.250Z,86.92
2023-07-12T19:59:20.075Z,88.84
2023-07-12T20:01:47.357Z,89.57
2023-07-12T20:04:15.866Z,89.48
2023-07-12T20:06:42.748Z,89.52
2023-07-12T20:09:10.999Z,89.74
2023-07-12T20:11:38.522Z,89.71
2023-07-12T20:14:05.545Z,90.73
2023-07-12T20:16:33.509Z,91.52
2023-07-12T20:19:00.609Z,91.00
2023-07-12T20:21:29.574Z,91.58
2023-07-12T20:23:56.478Z,92.03
2023-07-12T20:26:23.356Z,92.15
2023-07-12T20:28:50.926Z,93.38
2023-07-12T20:31:19.265Z,92.65
2023-07-12T20:33:46.587Z,93.48
2023-07-12T20:36:14.930Z,93.76
2023-07-12T20:38:43.266Z,94.31
2023-07-12T20:41:10.935Z,94.42
2023-07-12T20:43:38.713Z,94.53
2023-07-12T20:46:07.159Z,94.80
2023-07-12T20:48:36.082Z,94.13
2023-07-12T20:51:06.285Z,94.96
2023-07-12T20:53:34.794Z,95.71
2023-07-12T20:56:03.356Z,95.60
2023-07-12T20:58:30.765Z,97.44
2023-07-12T21:01:05.613Z,97.32
2023-07-12T21:03:32.994Z,97.68
2023-07-12T21:06:01.110Z,98.71
2023-07-12T21:08:27.988Z,99.24
2023-07-12T21:10:56.021Z,98.81
2023-07-12T21:13:24.629Z,100.00
2023-07-12T21:15:52.104Z,100.00
2023-07-12T21:18:19.318Z,100.00
2023-07-12T21:20:46.116Z,100.00
2023-07-12T21:23:13.608Z,100.00
2023-07-12T21:25:42.447Z,100.00
2023-07-12T21:28:09.533Z,100.00
2023-07-12T21:30:40.016Z,100.00
2023-07-12T21:33:06.903Z,100.00
2023-07-12T21:35:34.105Z,100.00
2023-07-12T21:38:01.389Z,100.00
2023-07-12T21:40:28.223Z,100.00
2023-07-12T21:42:55.127Z,100.00
2023-07-12T21:45:22.025Z,100.00
2023-07-12T21:47:50.268Z,100.00
2023-07-12T21:50:17.342Z,100.00
2023-07-12T21:52:44.203Z,100.00
2023-07-12T21:55:11.052Z,100.00
2023-07-12T21:57:38.009Z,100.00
2023-07-12T22:00:09.464Z,100.00
2023-07-12T22:02:36.555Z,100.00
2023-07-12T22:05:05.539Z,100.00
2023-07-12T22:07:32.339Z,100.00
2023-07-12T22:09:59.177Z,100.00
2023-07-12T22:12:26.039Z,100.00
2023-07-12T22:14:53.322Z,100.00
2023-07-12T22:17:20.165Z,100.00
2023-07-12T22:19:47.933Z,100.00
2023-07-12T22:22:16.160Z,100.00
2023-07-12T22:24:43.094Z,100.00
2023-07-12T22:27:10.768Z,100.00
2023-07-12T22:29:39.118Z,100.00
2023-07-12T22:32:07.434Z,100.00
2023-07-12T22:34:35.171Z,100.00
2023-07-12T22:37:03.067Z,100.00
2023-07-12T22:39:31.292Z,100.00
2023-07-12T22:41:58.199Z,100.00
2023-07-12T22:44:25.014Z,100.00
2023-07-12T22:46:53.600Z,100.00
2023-07-12T22:49:20.803Z,100.00
2023-07-12T22:51:47.838Z,100.00
2023-07-12T22:54:15.070Z,100.00
2023-07-12T22:56:47.646Z,100.00
2023-07-12T22:59:14.783Z,100.00
2023-07-12T23:01:41.620Z,100.00
2023-07-12T23:04:08.522Z,100.00
2023-07-12T23:06:39.832Z,100.00
2023-07-12T23:09:07.656Z,100.00
2023-07-12T23:11:34.624Z,100.00
2023-07-12T23:14:03.397Z,100.00
2023-07-12T23:16:32.835Z,100.00
2023-07-12T23:18:59.686Z,100.00
2023-07-12T23:21:27.118Z,100.00
2023-07-12T23:23:54.078Z,100.00
2023-07-12T23:26:21.750Z,100.00
2023-07-12T23:28:48.760Z,100.00
2023-07-12T23:31:17.752Z,100.00
2023-07-12T23:33:44.724Z,100.00
2023-07-12T23:36:14.304Z,100.00
2023-07-12T23:38:42.824Z,100.00
2023-07-12T23:41:11.053Z,100.00
2023-07-12T23:43:38.462Z,100.00
2023-07-12T23:46:05.558Z,100.00
2023-07-12T23:48:33.829Z,100.00
2023-07-12T23:51:01.139Z,100.00
2023-07-12T23:53:28.215Z,100.00
2023-07-12T23:55:55.265Z,100.00
2023-07-12T23:58:22.312Z,100.00
